Time;durP1;ratioP1;P1;durP2;ratioP2;P2;SDS_P1;SDS_P2;PMS_P1;PMS_P2;Temp;Humidity;BMP_temperature;BMP_pressure;BME280_temperature;BME280_humidity;BME280_pressure;Samples;Min_cycle;Max_cycle;Signal;HPM_P1;HPM_P2
2023/10/10 06:28:57;;;;;;;10.40;5.10;;;;;;;24.70;55.34;98944.75;5263245;23;20353;-80
2023/10/10 06:31:45;;;;;;;10.60;5.07;;;;;;;24.73;55.16;98932.63;4877332;29;20107;-85
2023/10/10 06:34:34;;;;;;;9.07;5.40;;;;;;;24.71;55.09;98934.81;4874629;29;20085;-81
2023/10/10 06:37:18;;;;;;;12.48;5.40;;;;;;;24.70;55.47;98949.31;4875063;29;20060;-83
2023/10/10 06:40:08;;;;;;;9.82;4.82;;;;;;;24.77;55.16;98955.16;4871819;29;20063;-83
2023/10/10 06:42:55;;;;;;;7.82;4.78;;;;;;;24.83;55.14;98953.97;4876947;29;20451;-80
2023/10/10 06:45:40;;;;;;;11.07;5.70;;;;;;;24.93;54.59;98967.25;4877192;29;20104;-84
2023/10/10 06:48:32;;;;;;;11.50;5.32;;;;;;;24.92;54.58;98962.19;4877669;29;20399;-85
2023/10/10 06:51:21;;;;;;;9.05;4.97;;;;;;;24.90;54.70;98967.81;4875088;29;20085;-83
2023/10/10 06:54:28;;;;;;;13.75;5.32;;;;;;;24.95;54.23;98961.59;4872104;29;20562;-83
2023/10/10 06:57:17;;;;;;;10.77;5.32;;;;;;;24.87;54.51;98957.66;4880107;29;20616;-82
2023/10/10 07:00:53;;;;;;;11.85;5.45;;;;;;;24.91;55.10;98956.00;4873659;29;20052;-83
2023/10/10 07:03:18;;;;;;;9.32;4.82;;;;;;;25.04;55.61;98959.03;4872860;29;20048;-80
2023/10/10 07:06:03;;;;;;;12.93;5.45;;;;;;;25.07;55.61;98958.44;4869354;29;20100;-80
2023/10/10 07:09:14;;;;;;;14.77;5.80;;;;;;;25.04;54.98;98950.97;4874598;29;20091;-81
2023/10/10 07:11:52;;;;;;;11.77;6.00;;;;;;;25.18;54.90;98965.25;4870073;29;20044;-81
2023/10/10 07:14:46;;;;;;;11.10;5.25;;;;;;;25.17;55.09;98969.03;4869597;29;20044;-79
2023/10/10 07:17:31;;;;;;;15.10;5.70;;;;;;;25.18;54.89;98954.50;4868307;29;20140;-80
2023/10/10 07:23:00;;;;;;;13.07;5.57;;;;;;;25.30;54.10;98950.56;4873600;29;20581;-80
2023/10/10 07:25:44;;;;;;;9.98;5.50;;;;;;;25.36;54.23;98950.16;4873040;29;20137;-80
2023/10/10 07:28:29;;;;;;;13.05;5.72;;;;;;;25.49;53.60;98956.69;4876682;29;20055;-80
2023/10/10 07:31:17;;;;;;;16.63;9.57;;;;;;;25.57;53.46;98955.22;4871429;29;20132;-83
2023/10/10 07:34:15;;;;;;;30.05;18.13;;;;;;;25.47;54.87;98956.19;4869817;29;20112;-84
2023/10/10 07:37:07;;;;;;;32.33;20.42;;;;;;;25.47;55.64;98953.50;4876642;29;20078;-82
2023/10/10 07:42:41;;;;;;;33.25;17.38;;;;;;;25.55;55.09;98951.22;4876250;29;20073;-83
2023/10/10 07:45:43;;;;;;;22.45;11.63;;;;;;;25.42;55.04;98937.44;4878002;29;20115;-81
2023/10/10 07:51:16;;;;;;;13.20;6.82;;;;;;;25.60;54.69;98964.59;4875713;29;20044;-82
2023/10/10 07:54:10;;;;;;;12.70;6.38;;;;;;;25.51;55.56;98962.56;4873950;29;20040;-83
2023/10/10 07:57:03;;;;;;;17.33;7.00;;;;;;;25.81;54.65;98955.03;4876543;29;20044;-82
2023/10/10 07:59:55;;;;;;;10.50;6.37;;;;;;;25.99;51.58;98957.13;4878944;29;20083;-82
2023/10/10 08:02:39;;;;;;;8.35;5.13;;;;;;;26.20;50.77;98954.84;4878476;29;20105;-82
2023/10/10 08:05:25;;;;;;;11.65;5.63;;;;;;;26.24;51.42;98963.91;4875293;29;20100;-82
2023/10/10 08:08:13;;;;;;;13.43;5.60;;;;;;;26.35;50.86;98977.94;4877397;29;20128;-82
2023/10/10 08:11:05;;;;;;;13.73;6.47;;;;;;;26.26;50.67;98967.09;4870774;29;20181;-81
2023/10/10 08:13:50;;;;;;;9.85;5.00;;;;;;;26.47;50.56;98977.44;4875334;29;20057;-82
2023/10/10 08:16:39;;;;;;;10.57;5.75;;;;;;;26.37;51.09;98971.19;4876929;29;20052;-82
2023/10/10 08:19:33;;;;;;;12.45;5.43;;;;;;;26.58;50.66;98956.47;4878007;29;20051;-83
2023/10/10 08:22:25;;;;;;;13.25;5.97;;;;;;;26.65;51.16;98949.56;4874852;29;20081;-82
2023/10/10 08:25:09;;;;;;;12.90;5.50;;;;;;;26.74;50.92;98940.78;4874001;29;20056;-83
2023/10/10 08:27:55;;;;;;;12.13;5.05;;;;;;;26.80;49.97;98944.94;4877599;29;20043;-83
2023/10/10 08:30:39;;;;;;;13.45;4.95;;;;;;;26.94;48.11;98943.00;4877552;29;20123;-83
2023/10/10 08:33:26;;;;;;;9.05;4.22;;;;;;;27.00;45.76;98937.50;4875342;29;20538;-84
2023/10/10 08:36:23;;;;;;;11.88;4.72;;;;;;;27.14;45.61;98940.94;4877358;29;20104;-82
2023/10/10 08:42:05;;;;;;;10.10;4.70;;;;;;;27.41;45.95;98938.34;4876680;29;20173;-83
2023/10/10 08:44:55;;;;;;;13.18;5.25;;;;;;;27.18;44.72;98946.47;4876157;29;20522;-82
2023/10/10 08:47:42;;;;;;;10.20;4.93;;;;;;;27.74;44.22;98960.44;4876293;29;20043;-84
2023/10/10 08:50:33;;;;;;;15.23;4.60;;;;;;;27.88;44.07;98956.81;4877302;29;20097;-84
2023/10/10 08:53:20;;;;;;;13.07;5.68;;;;;;;28.09;47.14;98943.56;4876105;29;20104;-83
2023/10/10 08:56:04;;;;;;;11.40;5.53;;;;;;;28.13;47.68;98938.34;4876895;29;20169;-83
2023/10/10 08:58:48;;;;;;;;;;;;;;;27.80;42.76;98934.91;4875017;29;20044;-81
2023/10/10 09:01:35;;;;;;;8.98;4.40;;;;;;;28.20;42.60;98934.09;4876972;29;19926;-81
2023/10/10 09:04:20;;;;;;;16.08;5.05;;;;;;;28.48;43.11;98931.09;4876636;29;20059;-82
2023/10/10 09:07:08;;;;;;;13.00;4.72;;;;;;;28.63;41.24;98918.22;4876871;29;20056;-82
2023/10/10 09:10:04;;;;;;;11.15;5.22;;;;;;;28.57;40.84;98914.91;4876515;29;20399;-83
2023/10/10 09:12:58;;;;;;;10.70;5.05;;;;;;;28.67;41.49;98913.78;4876223;29;20088;-82
2023/10/10 09:15:56;;;;;;;8.98;5.25;;;;;;;28.79;41.62;98908.56;4877664;29;20084;-83
2023/10/10 09:18:40;;;;;;;18.80;6.45;;;;;;;28.56;42.90;98905.22;4880153;29;20044;-83
2023/10/10 09:21:24;;;;;;;13.90;5.43;;;;;;;28.78;43.23;98892.63;4880981;29;20458;-82
2023/10/10 09:24:26;;;;;;;10.50;5.95;;;;;;;28.83;43.86;98889.78;4880681;29;20420;-82
2023/10/10 09:27:24;;;;;;;13.25;6.30;;;;;;;28.75;42.72;98874.38;4879018;29;20067;-82
2023/10/10 09:30:10;;;;;;;11.13;6.13;;;;;;;29.15;41.43;98881.44;4878131;29;20068;-82
2023/10/10 09:33:00;;;;;;;12.48;6.03;;;;;;;29.02;43.92;98875.13;4879820;29;20149;-82
2023/10/10 09:35:48;;;;;;;11.77;5.88;;;;;;;29.19;42.87;98872.38;4876052;29;20097;-83
2023/10/10 09:38:36;;;;;;;11.05;5.90;;;;;;;29.16;43.14;98872.22;4880043;29;20052;-82
2023/10/10 09:41:28;;;;;;;11.05;6.88;;;;;;;29.26;42.48;98868.38;4879773;29;20535;-82
2023/10/10 09:52:49;;;;;;;16.23;6.47;;;;;;;29.72;41.92;98857.84;4878431;29;20077;-82
2023/10/10 09:58:24;;;;;;;14.25;6.07;;;;;;;29.54;43.95;98851.75;4877542;29;20056;-82
2023/10/10 10:01:16;;;;;;;24.17;7.13;;;;;;;29.63;43.77;98844.38;4877902;29;20564;-81
2023/10/10 10:04:03;;;;;;;16.20;7.28;;;;;;;29.79;44.89;98856.22;4879608;29;20081;-82
2023/10/10 10:07:12;;;;;;;10.80;6.22;;;;;;;30.02;43.94;98855.91;4879015;29;20044;-82
2023/10/10 10:10:46;;;;;;;15.40;6.70;;;;;;;29.89;45.11;98854.25;4873509;29;20056;-81
2023/10/10 10:13:49;;;;;;;14.07;6.85;;;;;;;29.89;44.57;98862.38;4876458;29;20101;-82
2023/10/10 10:16:44;;;;;;;15.20;6.22;;;;;;;29.74;43.02;98864.53;4879236;29;20044;-82
2023/10/10 10:19:28;;;;;;;17.27;6.43;;;;;;;28.82;42.55;98860.41;4877613;29;20056;-82
2023/10/10 10:22:17;;;;;;;14.82;7.43;;;;;;;29.06;43.27;98849.84;4878719;29;20052;-82
2023/10/10 10:25:21;;;;;;;13.93;6.70;;;;;;;29.27;43.04;98851.84;4876937;29;20138;-82
2023/10/10 10:28:12;;;;;;;15.43;6.38;;;;;;;29.36;43.33;98852.56;4877379;29;20052;-83
2023/10/10 10:30:56;;;;;;;19.08;6.10;;;;;;;29.71;42.75;98857.06;4874500;29;20047;-83
2023/10/10 10:34:06;;;;;;;17.90;6.93;;;;;;;29.44;41.10;98861.81;4879323;29;20052;-82
2023/10/10 10:37:13;;;;;;;12.40;6.55;;;;;;;29.29;41.82;98840.72;4879364;29;20055;-82
2023/10/10 10:42:58;;;;;;;14.13;7.00;;;;;;;28.83;40.70;98843.88;4877945;29;20047;-83
2023/10/10 10:45:51;;;;;;;16.67;7.47;;;;;;;29.14;41.31;98850.94;4876456;29;20092;-83
2023/10/10 10:48:35;;;;;;;15.67;7.53;;;;;;;29.54;41.22;98840.94;4878454;29;20069;-81
2023/10/10 10:51:22;;;;;;;16.42;7.50;;;;;;;28.98;41.76;98849.88;4877638;29;20353;-82
2023/10/10 10:54:08;;;;;;;15.35;7.80;;;;;;;29.20;43.23;98849.63;4875627;29;20166;-81
2023/10/10 10:56:55;;;;;;;21.15;8.38;;;;;;;29.92;41.96;98840.06;4876705;29;20100;-81
2023/10/10 10:59:55;;;;;;;20.63;7.03;;;;;;;29.85;41.58;98845.19;4879009;29;20395;-82
2023/10/10 11:02:39;;;;;;;18.95;7.05;;;;;;;29.93;40.58;98844.34;4878631;29;20097;-82
2023/10/10 11:05:27;;;;;;;16.67;7.00;;;;;;;30.14;41.44;98841.66;4877287;29;20112;-83
2023/10/10 11:08:13;;;;;;;16.80;7.82;;;;;;;30.28;43.53;98840.59;4877809;29;20052;-83
2023/10/10 11:10:58;;;;;;;16.00;8.57;;;;;;;30.44;44.96;98843.47;4878633;29;20173;-83
2023/10/10 11:13:55;;;;;;;15.57;8.38;;;;;;;30.68;43.90;98844.75;4877644;29;20555;-82
2023/10/10 11:16:47;;;;;;;15.93;8.18;;;;;;;30.54;45.15;98840.38;4878362;29;21981;-83
2023/10/10 11:22:38;;;;;;;13.95;8.23;;;;;;;31.33;44.00;98830.63;4878290;29;20039;-83
2023/10/10 11:25:29;;;;;;;17.10;7.93;;;;;;;31.45;44.45;98818.97;4878330;29;20504;-83
2023/10/10 11:28:23;;;;;;;18.00;8.30;;;;;;;31.69;45.58;98818.16;4876648;29;20510;-81
2023/10/10 11:31:07;;;;;;;14.38;7.25;;;;;;;31.86;42.01;98813.63;4873995;29;20073;-82
2023/10/10 11:34:10;;;;;;;16.23;7.22;;;;;;;31.95;41.07;98800.69;4876466;29;20091;-81
2023/10/10 11:37:12;;;;;;;21.60;6.55;;;;;;;32.12;44.13;98790.69;4877706;29;20055;-81
2023/10/10 11:43:12;;;;;;;13.82;7.32;;;;;;;32.22;44.35;98782.03;4876887;29;20047;-82
2023/10/10 11:45:56;;;;;;;18.48;7.60;;;;;;;31.75;43.82;98773.34;4877900;29;20052;-82
2023/10/10 11:48:43;;;;;;;17.27;8.45;;;;;;;31.04;44.52;98789.00;4877446;29;20100;-82
2023/10/10 11:51:35;;;;;;;17.02;7.90;;;;;;;31.55;44.20;98788.69;4875041;29;20073;-83
2023/10/10 11:54:25;;;;;;;15.77;7.22;;;;;;;31.19;40.61;98768.56;4877519;29;20048;-82
2023/10/10 11:57:09;;;;;;;16.70;6.10;;;;;;;31.33;40.51;98770.97;4874318;29;20073;-82
2023/10/10 11:59:56;;;;;;;21.20;6.70;;;;;;;30.60;40.58;98767.81;4875288;29;20560;-82
2023/10/10 12:02:40;;;;;;;13.95;6.55;;;;;;;30.10;41.04;98775.00;4876489;29;20455;-83
2023/10/10 12:08:22;;;;;;;12.18;5.65;;;;;;;30.53;40.80;98762.16;4872919;29;20043;-82
2023/10/10 12:11:12;;;;;;;17.70;5.72;;;;;;;30.75;40.80;98761.75;4875615;29;20080;-82
2023/10/10 12:13:56;;;;;;;16.30;6.85;;;;;;;30.84;41.47;98769.00;4876014;29;20044;-82
2023/10/10 12:16:40;;;;;;;21.10;6.45;;;;;;;31.17;41.55;98763.47;4876314;29;20442;-82
2023/10/10 12:19:27;;;;;;;14.27;5.88;;;;;;;31.54;41.79;98756.47;4876250;29;20053;-82
2023/10/10 12:22:11;;;;;;;18.83;7.15;;;;;;;30.81;41.40;98758.84;4876769;29;20055;-82
2023/10/10 12:24:57;;;;;;;13.48;6.20;;;;;;;30.55;42.17;98744.44;4875441;29;20048;-82
2023/10/10 12:27:46;;;;;;;14.85;5.97;;;;;;;31.36;41.83;98743.16;4874512;29;20048;-83
2023/10/10 12:30:30;;;;;;;19.33;5.22;;;;;;;31.22;42.20;98745.44;4873541;29;20056;-82
2023/10/10 12:33:16;;;;;;;11.95;5.72;;;;;;;31.89;41.43;98734.22;4873656;29;20110;-82
2023/10/10 12:36:07;;;;;;;20.10;5.97;;;;;;;31.58;40.63;98747.31;4877432;29;20052;-82
2023/10/10 12:38:51;;;;;;;12.02;5.63;;;;;;;30.69;41.75;98746.09;4874869;29;20463;-83
2023/10/10 12:41:45;;;;;;;14.32;5.80;;;;;;;30.57;42.43;98733.28;4874240;29;20080;-82
2023/10/10 12:44:29;;;;;;;11.57;5.57;;;;;;;30.39;42.50;98732.69;4876694;29;20082;-81
2023/10/10 12:47:17;;;;;;;14.93;5.57;;;;;;;30.71;43.59;98739.19;4874380;29;20060;-82
2023/10/10 12:50:01;;;;;;;10.73;6.00;;;;;;;30.20;44.05;98731.28;4875540;29;20051;-82
2023/10/10 12:52:57;;;;;;;16.83;5.28;;;;;;;29.74;44.76;98723.88;4876806;29;20112;-82
2023/10/10 12:55:48;;;;;;;14.93;5.80;;;;;;;30.41;44.65;98725.81;4875489;29;20052;-82
2023/10/10 12:58:33;;;;;;;7.18;5.28;;;;;;;30.43;44.39;98714.63;4876669;29;20474;-81
2023/10/10 13:01:23;;;;;;;13.10;5.38;;;;;;;29.78;45.57;98711.25;4873918;29;20117;-82
2023/10/10 13:04:07;;;;;;;15.98;6.07;;;;;;;30.30;45.08;98722.75;4875985;29;20100;-82
2023/10/10 13:06:51;;;;;;;14.85;6.10;;;;;;;29.93;46.21;98715.25;4875897;29;20047;-83
2023/10/10 13:09:42;;;;;;;18.55;6.18;;;;;;;29.58;45.94;98717.47;4875156;29;20056;-82
2023/10/10 13:12:32;;;;;;;14.73;5.70;;;;;;;30.22;46.07;98718.19;4873957;29;20104;-83
2023/10/10 13:15:18;;;;;;;17.15;6.43;;;;;;;30.41;45.33;98708.75;4875390;29;20089;-83
2023/10/10 13:18:19;;;;;;;12.02;5.47;;;;;;;30.13;45.54;98709.38;4876930;29;20479;-82
2023/10/10 13:21:03;;;;;;;14.70;6.15;;;;;;;29.66;45.78;98696.88;4875413;29;20048;-83
2023/10/10 13:23:52;;;;;;;12.02;5.63;;;;;;;29.71;46.15;98693.97;4875071;29;20133;-82
2023/10/10 13:26:38;;;;;;;13.98;6.03;;;;;;;29.67;46.53;98677.59;4876745;29;20064;-83
2023/10/10 13:29:22;;;;;;;19.23;6.30;;;;;;;30.28;46.03;98678.97;4873565;29;20073;-83
2023/10/10 13:32:06;;;;;;;16.52;6.15;;;;;;;30.05;46.23;98663.13;4873334;29;20036;-82
2023/10/10 13:34:51;;;;;;;12.52;5.65;;;;;;;29.73;46.59;98675.50;4874356;29;20052;-82
2023/10/10 13:37:40;;;;;;;10.65;6.50;;;;;;;29.29;46.83;98662.31;4871391;29;20100;-82
2023/10/10 13:40:25;;;;;;;15.88;6.43;;;;;;;29.42;46.46;98672.09;4875177;29;20056;-82
2023/10/10 13:43:09;;;;;;;19.65;7.28;;;;;;;28.71;47.04;98660.88;4875858;29;20112;-82
2023/10/10 13:45:57;;;;;;;14.18;6.80;;;;;;;29.32;47.09;98659.72;4874662;29;20508;-82
2023/10/10 13:48:42;;;;;;;12.30;6.30;;;;;;;28.98;47.42;98649.97;4874688;29;20407;-82
2023/10/10 13:51:29;;;;;;;16.83;6.45;;;;;;;29.47;47.15;98655.66;4874827;29;20048;-83
2023/10/10 13:54:15;;;;;;;12.40;6.22;;;;;;;29.25;47.19;98643.25;4876654;29;20407;-82
2023/10/10 13:57:00;;;;;;;14.15;6.97;;;;;;;29.31;46.93;98641.16;4876675;29;20076;-82
2023/10/10 13:59:47;;;;;;;12.55;6.93;;;;;;;28.99;47.74;98638.03;4874331;29;20052;-83
2023/10/10 14:02:32;;;;;;;14.23;7.40;;;;;;;29.16;47.07;98642.53;4875628;29;20101;-82
2023/10/10 14:05:19;;;;;;;15.43;7.45;;;;;;;28.83;47.40;98640.53;4877869;29;20067;-83
2023/10/10 14:08:17;;;;;;;13.80;7.03;;;;;;;28.78;47.81;98646.88;4877599;29;20043;-82
2023/10/10 14:11:01;;;;;;;14.75;6.97;;;;;;;28.89;47.08;98647.31;4873966;29;20040;-82
2023/10/10 14:13:46;;;;;;;16.55;7.53;;;;;;;29.18;46.97;98641.09;4878139;29;20510;-83
2023/10/10 14:16:32;;;;;;;16.77;7.38;;;;;;;29.21;47.02;98640.41;4878461;29;20115;-82
2023/10/10 14:19:16;;;;;;;16.98;6.80;;;;;;;29.25;46.95;98645.16;4878619;29;20040;-83
2023/10/10 14:22:10;;;;;;;14.95;7.25;;;;;;;28.91;47.36;98634.25;4876711;29;20040;-82
2023/10/10 14:24:54;;;;;;;13.68;6.22;;;;;;;28.83;47.23;98622.38;4879043;29;20057;-84
2023/10/10 14:27:43;;;;;;;13.77;6.07;;;;;;;28.79;47.33;98648.44;4879211;29;20188;-82
2023/10/10 14:30:27;;;;;;;19.25;6.55;;;;;;;28.97;47.48;98637.56;4874639;29;20072;-82
2023/10/10 14:33:11;;;;;;;17.48;6.55;;;;;;;28.72;47.02;98623.88;4873989;29;20089;-82
2023/10/10 14:35:55;;;;;;;14.75;6.38;;;;;;;28.92;46.66;98625.84;4876195;29;20066;-83
2023/10/10 14:38:49;;;;;;;12.95;6.32;;;;;;;28.68;46.49;98633.72;4879534;29;20083;-83
2023/10/10 14:41:35;;;;;;;10.30;6.75;;;;;;;28.67;46.46;98621.34;4873520;29;20044;-83
2023/10/10 14:44:18;;;;;;;14.07;6.25;;;;;;;28.13;46.78;98614.56;4878839;29;20055;-84
2023/10/10 14:47:04;;;;;;;19.48;6.20;;;;;;;28.60;47.13;98601.03;4877278;29;20071;-83
2023/10/10 14:49:54;;;;;;;14.95;6.18;;;;;;;28.24;46.78;98599.63;4877977;29;20105;-82
2023/10/10 14:52:47;;;;;;;23.15;6.30;;;;;;;28.25;47.34;98613.91;4877787;29;20036;-83
2023/10/10 14:55:31;;;;;;;13.68;5.43;;;;;;;27.97;48.02;98612.38;4877683;29;20056;-82
2023/10/10 14:58:16;;;;;;;12.07;5.15;;;;;;;27.99;47.88;98593.16;4877558;29;20154;-83
2023/10/10 15:01:00;;;;;;;14.82;6.28;;;;;;;28.18;48.12;98595.53;4875849;29;20664;-84
2023/10/10 15:03:47;;;;;;;13.20;5.80;;;;;;;28.20;48.03;98587.91;4875234;29;20048;-83
2023/10/10 15:06:33;;;;;;;11.48;6.63;;;;;;;28.32;47.84;98590.72;4873623;29;20407;-83
2023/10/10 15:09:20;;;;;;;16.58;6.20;;;;;;;28.43;48.07;98591.13;4875902;29;20048;-83
2023/10/10 15:12:07;;;;;;;18.67;6.05;;;;;;;28.02;48.12;98579.84;4872101;29;20067;-84
2023/10/10 15:14:52;;;;;;;14.68;6.15;;;;;;;27.73;48.14;98581.34;4876368;29;20100;-83
2023/10/10 15:17:37;;;;;;;15.23;5.72;;;;;;;27.85;48.11;98582.56;4878290;29;20555;-84
2023/10/10 15:20:22;;;;;;;14.45;6.05;;;;;;;28.02;47.73;98579.84;4877064;29;20136;-83
2023/10/10 15:23:06;;;;;;;17.77;6.28;;;;;;;27.26;49.16;98591.97;4875885;29;20048;-83
2023/10/10 15:25:54;;;;;;;19.17;6.28;;;;;;;27.85;48.56;98588.78;4873570;29;20124;-83
2023/10/10 15:28:40;;;;;;;12.50;6.05;;;;;;;27.29;48.73;98577.88;4874461;29;20147;-82
2023/10/10 15:31:31;;;;;;;12.35;6.50;;;;;;;27.64;48.46;98594.84;4872564;29;20040;-82
2023/10/10 15:34:15;;;;;;;15.90;6.22;;;;;;;27.21;49.06;98577.56;4875867;29;20051;-85
2023/10/10 15:37:09;;;;;;;17.50;6.28;;;;;;;27.25;48.81;98572.34;4876753;29;20055;-85
2023/10/10 15:39:57;;;;;;;18.30;6.38;;;;;;;27.45;48.57;98559.31;4875180;29;20100;-84
2023/10/10 15:42:41;;;;;;;16.00;6.45;;;;;;;27.63;47.82;98565.50;4877528;29;20075;-85
2023/10/10 15:45:25;;;;;;;20.58;6.07;;;;;;;27.32;48.40;98561.09;4874403;29;20506;-85
2023/10/10 15:48:23;;;;;;;20.50;5.82;;;;;;;27.27;49.00;98566.63;4878159;29;20142;-84
2023/10/10 15:51:08;;;;;;;14.70;5.50;;;;;;;27.36;48.85;98562.03;4877260;29;20079;-84
2023/10/10 15:53:56;;;;;;;16.15;6.00;;;;;;;27.35;48.62;98563.13;4876697;29;20096;-85
2023/10/10 15:56:40;;;;;;;16.33;5.75;;;;;;;27.62;48.85;98561.22;4876628;29;20044;-85
2023/10/10 15:59:25;;;;;;;11.05;5.35;;;;;;;27.67;48.40;98563.75;4875211;29;20063;-85
2023/10/10 16:02:09;;;;;;;16.88;6.00;;;;;;;27.09;48.69;98555.84;4877203;29;20101;-85
2023/10/10 16:04:53;;;;;;;18.08;6.20;;;;;;;26.98;48.59;98546.50;4876571;29;20084;-84
2023/10/10 16:07:37;;;;;;;11.95;5.35;;;;;;;26.30;49.10;98550.28;4874938;29;20047;-85
2023/10/10 16:10:21;;;;;;;15.27;6.03;;;;;;;26.59;48.90;98583.94;4876087;29;20056;-84
2023/10/10 16:13:07;;;;;;;16.25;6.03;;;;;;;26.31;49.11;98574.19;4873183;29;20063;-84
2023/10/10 16:15:56;;;;;;;18.20;5.88;;;;;;;26.60;49.02;98590.91;4876458;29;20555;-84
2023/10/10 16:18:45;;;;;;;12.35;5.78;;;;;;;26.32;49.48;98556.94;4876276;29;20120;-84
2023/10/10 16:21:31;;;;;;;18.85;6.22;;;;;;;26.29;50.14;98560.25;4876313;29;20052;-84
2023/10/10 16:24:16;;;;;;;10.60;5.82;;;;;;;25.92;50.50;98570.34;4877039;29;20052;-85
2023/10/10 16:27:01;;;;;;;13.40;6.05;;;;;;;26.27;50.23;98575.91;4876039;29;20136;-85
2023/10/10 16:29:45;;;;;;;15.50;6.03;;;;;;;26.38;49.80;98561.09;4874729;29;20514;-85
2023/10/10 16:32:29;;;;;;;18.52;6.10;;;;;;;26.51;49.97;98570.16;4876683;29;20052;-85
2023/10/10 16:35:15;;;;;;;12.73;5.82;;;;;;;26.77;50.25;98552.47;4876585;29;20058;-85
2023/10/10 16:38:02;;;;;;;14.20;6.03;;;;;;;26.58;50.59;98564.31;4876345;29;20192;-84
2023/10/10 16:40:46;;;;;;;23.02;6.13;;;;;;;26.47;51.09;98568.38;4876451;29;20459;-84
2023/10/10 16:43:34;;;;;;;15.60;6.57;;;;;;;26.47;51.21;98563.00;4872705;29;20044;-84
2023/10/10 16:46:20;;;;;;;14.57;5.88;;;;;;;26.21;52.04;98563.72;4875985;29;20063;-86
2023/10/10 16:49:05;;;;;;;14.45;6.13;;;;;;;26.24;52.45;98544.25;4877146;29;20048;-84
2023/10/10 16:51:49;;;;;;;14.85;5.20;;;;;;;26.54;52.05;98555.28;4877271;29;20052;-85
2023/10/10 16:54:33;;;;;;;9.98;5.25;;;;;;;26.31;52.29;98546.50;4876208;29;20252;-84
2023/10/10 16:57:20;;;;;;;11.73;6.38;;;;;;;26.34;52.12;98530.53;4877082;29;20439;-85
2023/10/10 17:00:12;;;;;;;13.82;5.85;;;;;;;26.32;52.60;98548.88;4873056;29;20044;-86
2023/10/10 17:02:57;;;;;;;16.02;5.72;;;;;;;26.16;52.55;98545.00;4877054;29;20093;-84
2023/10/10 17:05:41;;;;;;;15.43;5.82;;;;;;;26.14;52.97;98555.25;4873337;29;20056;-83
2023/10/10 17:08:26;;;;;;;11.30;5.68;;;;;;;26.29;52.84;98573.69;4875250;29;20084;-83
2023/10/10 17:11:11;;;;;;;12.30;5.63;;;;;;;26.22;53.23;98565.28;4873699;29;20063;-83
2023/10/10 17:13:59;;;;;;;12.38;5.78;;;;;;;25.91;53.54;98560.69;4877331;29;20048;-85
2023/10/10 17:16:44;;;;;;;14.02;5.93;;;;;;;25.96;53.27;98563.25;4881294;29;20448;-87
2023/10/10 17:19:31;;;;;;;25.92;13.80;;;;;;;26.07;53.32;98564.56;4871032;29;20407;-85
2023/10/10 17:22:16;;;;;;;39.10;23.88;;;;;;;25.72;54.08;98556.31;4870360;29;20525;-85
2023/10/10 17:25:00;;;;;;;32.50;18.15;;;;;;;26.01;53.98;98568.50;4879777;29;20104;-81
2023/10/10 17:27:45;;;;;;;23.08;13.73;;;;;;;25.84;53.83;98550.38;4866008;29;20048;-83
2023/10/10 17:30:29;;;;;;;16.75;8.63;;;;;;;25.85;53.98;98540.41;4875020;29;20052;-82
2023/10/10 17:33:13;;;;;;;16.27;6.75;;;;;;;26.00;53.70;98547.28;4877092;29;20048;-81
2023/10/10 17:35:57;;;;;;;28.25;13.43;;;;;;;25.75;53.85;98561.09;4876289;29;20104;-81
2023/10/10 17:38:43;;;;;;;39.75;23.88;;;;;;;25.88;54.04;98561.31;4879057;29;20048;-81
2023/10/10 17:41:27;;;;;;;24.40;12.27;;;;;;;25.85;54.11;98570.00;4879568;29;20044;-82
2023/10/10 17:44:11;;;;;;;20.42;11.57;;;;;;;25.84;53.98;98565.72;4878641;29;20513;-80
2023/10/10 17:46:55;;;;;;;31.65;14.73;;;;;;;25.47;54.72;98553.16;4880133;29;20660;-81
2023/10/10 17:49:39;;;;;;;23.17;11.68;;;;;;;25.49;54.21;98553.66;4881880;29;20055;-83
2023/10/10 17:52:24;;;;;;;21.95;9.20;;;;;;;25.55;54.71;98564.25;4884571;29;20071;-84
2023/10/10 17:55:09;;;;;;;14.35;8.13;;;;;;;25.75;54.39;98555.72;4877456;29;20039;-83
2023/10/10 17:57:53;;;;;;;21.15;11.88;;;;;;;25.75;53.89;98552.22;4880052;29;20149;-82
2023/10/10 18:00:37;;;;;;;27.23;13.60;;;;;;;25.49;54.33;98556.34;4884873;29;20052;-82
2023/10/10 18:03:25;;;;;;;21.38;8.50;;;;;;;25.52;54.64;98563.78;4886230;29;20057;-83
2023/10/10 18:06:35;;;;;;;15.52;7.53;;;;;;;25.56;54.15;98549.75;4874533;29;20078;-84
2023/10/10 18:09:20;;;;;;;15.07;6.75;;;;;;;25.71;54.66;98546.66;4880992;29;20052;-83
2023/10/10 18:12:04;;;;;;;15.45;6.05;;;;;;;25.67;54.79;98548.38;4876480;29;20124;-85
2023/10/10 18:14:54;;;;;;;12.10;6.55;;;;;;;25.53;54.52;98543.09;4878382;29;20096;-82
2023/10/10 18:17:38;;;;;;;15.93;6.25;;;;;;;25.52;54.43;98530.75;4881128;29;20051;-84
2023/10/10 18:20:23;;;;;;;8.93;5.35;;;;;;;25.64;54.61;98530.97;4882322;29;20073;-84
2023/10/10 18:23:07;;;;;;;17.73;5.72;;;;;;;25.57;54.35;98514.50;4873253;29;20506;-85
2023/10/10 18:25:51;;;;;;;16.27;5.57;;;;;;;25.51;54.52;98527.25;4877680;29;20048;-84
2023/10/10 18:28:35;;;;;;;14.57;6.28;;;;;;;25.71;54.81;98524.38;4870670;29;20120;-84
2023/10/10 18:31:24;;;;;;;13.93;6.68;;;;;;;25.65;54.07;98521.84;4876934;29;20119;-84
2023/10/10 18:34:13;;;;;;;14.15;7.32;;;;;;;25.61;54.46;98526.22;4871177;29;20096;-85
2023/10/10 18:36:57;;;;;;;17.75;6.70;;;;;;;25.40;55.16;98533.97;4879105;29;20056;-86
2023/10/10 18:39:41;;;;;;;10.20;5.85;;;;;;;25.19;55.37;98499.53;4871830;29;20467;-84
2023/10/10 18:42:25;;;;;;;13.77;6.50;;;;;;;25.56;54.98;98522.88;4865453;29;20052;-83
2023/10/10 18:45:12;;;;;;;14.85;6.38;;;;;;;25.47;55.11;98525.50;4883051;29;20099;-85
2023/10/10 18:47:56;;;;;;;13.00;6.70;;;;;;;25.29;55.78;98525.38;4879551;29;20415;-84
2023/10/10 18:50:40;;;;;;;13.45;6.78;;;;;;;25.08;56.25;98539.28;4877159;29;20048;-83
2023/10/10 18:53:26;;;;;;;12.85;6.57;;;;;;;25.16;56.38;98529.69;4878800;29;20453;-84
2023/10/10 18:56:09;;;;;;;13.18;6.65;;;;;;;24.88;56.63;98500.25;4880752;29;20147;-84
2023/10/10 18:58:54;;;;;;;15.35;7.03;;;;;;;25.18;56.69;98540.13;4880579;29;20129;-84
2023/10/10 19:01:43;;;;;;;12.10;7.20;;;;;;;25.13;57.18;98527.59;4878271;29;20101;-87
2023/10/10 19:04:28;;;;;;;15.90;7.78;;;;;;;24.81;57.89;98524.03;4873672;29;20048;-83
2023/10/10 19:07:15;;;;;;;18.15;9.23;;;;;;;24.94;57.85;98515.13;4878242;29;20112;-83
2023/10/10 19:10:02;;;;;;;14.02;8.00;;;;;;;24.70;58.49;98509.19;4876029;29;20044;-88
2023/10/10 19:12:47;;;;;;;13.88;8.10;;;;;;;24.73;58.97;98511.28;4879031;29;20073;-86
2023/10/10 19:15:32;;;;;;;15.40;8.18;;;;;;;24.47;59.62;98509.94;4878459;29;20136;-86
2023/10/10 19:18:16;;;;;;;16.83;7.78;;;;;;;24.72;59.55;98496.28;4875653;29;20120;-85
2023/10/10 19:21:30;;;;;;;12.77;7.63;;;;;;;24.74;59.85;98502.13;4872291;29;20052;-86
2023/10/10 19:24:14;;;;;;;14.43;7.47;;;;;;;24.74;59.98;98504.81;4876154;29;20043;-84
2023/10/10 19:26:59;;;;;;;17.13;8.20;;;;;;;24.62;60.61;98508.03;4878534;29;20064;-87
2023/10/10 19:29:43;;;;;;;14.82;7.72;;;;;;;24.79;60.68;98504.75;4873789;29;20059;-88
2023/10/10 19:32:27;;;;;;;19.40;7.93;;;;;;;24.63;60.84;98515.78;4877714;29;20097;-87
2023/10/10 19:35:10;;;;;;;;;;;;;;;24.66;61.08;98525.91;4873363;29;20047;-88
2023/10/10 19:37:55;;;;;;;18.17;8.48;;;;;;;24.20;62.58;98508.84;4876116;29;19922;-87
2023/10/10 19:40:43;;;;;;;23.05;8.20;;;;;;;24.54;62.10;98501.47;4871081;29;20044;-87
2023/10/10 19:43:28;;;;;;;21.58;8.43;;;;;;;24.63;62.42;98521.16;4880001;29;20048;-87
2023/10/10 19:46:13;;;;;;;17.23;8.65;;;;;;;24.73;62.77;98517.44;4878389;29;20047;-86
2023/10/10 19:49:00;;;;;;;15.68;8.60;;;;;;;24.46;63.10;98507.56;4870209;29;20043;-87
2023/10/10 19:51:44;;;;;;;15.48;9.02;;;;;;;24.58;63.38;98515.09;4879121;29;20097;-86
2023/10/10 19:54:31;;;;;;;13.10;8.13;;;;;;;23.97;65.29;98526.69;4879498;29;20110;-87
2023/10/10 19:57:15;;;;;;;13.35;8.75;;;;;;;24.20;65.61;98524.16;4876719;29;20515;-86
2023/10/10 20:00:19;;;;;;;22.20;8.43;;;;;;;24.14;66.32;98514.59;4878370;29;20116;-86
2023/10/10 20:03:06;;;;;;;16.23;9.02;;;;;;;24.01;66.92;98516.16;4875817;29;20074;-86
2023/10/10 20:05:52;;;;;;;19.42;8.93;;;;;;;24.16;66.83;98497.16;4876853;29;20049;-85